• Join FlightAware (Why Join?)
  • Login
  • US Flag 
08:58AM EDT


 

Airport Tracker/Info


-or-


 

Live Flight TrackerFlight Track Log ✈ SWA1521 ✈ 30-Apr-2013 ✈ KSMF - KLAX

Flight Track Log - Related Links

Times and Time Zones

All times are in EDT time to prevent confusion due to time zone crossing. See the SWA1521 flight status page for this flight to view local times or setup timezone preferences in your user account.

Time Position Orientation Groundspeed Altitude Reporting Facility
EDT Latitude Longitude Course Direction KTS MPH feet Rate Location/Type
11:21PM 38.7000 -121.5500 113° Southeast 242 278 5,200  Level Northern Cal TRACON
11:22PM 38.6500 -121.4833 134° Southeast 266 306 8,500 2,880 Climbing Northern Cal TRACON
11:24PM 38.5878 -121.3722 126° Southeast 315 362 12,300 3,000 Climbing Oakland Center
11:25PM 38.5339 -121.2631 122° Southeast 352 405 15,900 3,300 Climbing Oakland Center
11:26PM 38.4711 -121.1453 124° Southeast 383 441 19,100 2,940 Climbing Oakland Center
11:27PM 38.4081 -121.0219 123° Southeast 407 468 21,900 2,700 Climbing Oakland Center
11:28PM 38.3411 -120.8922 123° Southeast 432 497 24,700 2,700 Climbing Oakland Center
11:29PM 38.2578 -120.7319 123° Southeast 449 517 27,500 2,400 Climbing Oakland Center
11:30PM 38.1653 -120.6136 135° Southeast 473 544 29,600 1,920 Climbing Oakland Center
11:31PM 38.0589 -120.5100 143° Southeast 480 552 31,500 1,980 Climbing Oakland Center
11:32PM 37.9489 -120.4050 143° Southeast 495 570 33,700 2,100 Climbing Oakland Center
11:33PM 37.8450 -120.3006 142° Southeast 482 555 35,800 1,620 Climbing Oakland Center
11:34PM 37.7383 -120.1986 143° Southeast 479 551 37,000 540 Climbing Oakland Center
11:35PM 37.6322 -120.0953 142° Southeast 481 554 37,000 300 Level Oakland Center
11:36PM 37.5225 -119.9931 144° Southeast 488 562 37,700 960 Climbing Oakland Center
11:37PM 37.4158 -119.8914 143° Southeast 479 551 39,000 600 Climbing Oakland Center
11:38PM 37.3078 -119.7881 143° Southeast 485 558 39,000  Level Oakland Center
11:39PM 37.1939 -119.7047 150° Southeast 488 562 39,000  Level Oakland Center
11:40PM 37.0594 -119.6964 177° South 481 554 39,000  Level Oakland Center
11:41PM 36.9242 -119.6919 178° South 485 558 39,000  Level Oakland Center
11:42PM 36.7628 -119.6867 178° South 484 557 39,000  Level Oakland Center
11:43PM 36.6247 -119.6833 179° South 499 574 39,000  Level Oakland Center
11:44PM 36.4908 -119.6783 178° South 483 556 39,000  Level Oakland Center
11:45PM 36.3567 -119.6744 179° South 481 554 39,000  Level Oakland Center
11:46PM 36.2231 -119.6694 178° South 478 550 39,000  Level Oakland Center
11:47PM 36.0886 -119.6661 179° South 481 554 39,000  Level Oakland Center
11:48PM 35.9553 -119.6611 178° South 479 551 39,000  Level Oakland Center
11:49PM 35.8200 -119.6589 179° South 483 556 39,000  Level Oakland Center
11:51PM 35.6855 -119.6667 180° South  Level FlightAware Approximate
11:53PM 35.3208 -119.5192 146° Southeast 461 531 39,000  Level Oakland Center
11:54PM 35.1825 -119.4392 155° Southeast 460 529 37,500 -2,040 Descending Los Angeles Center
11:55PM 35.0686 -119.3725 154° Southeast 456 525 34,600 -3,120 Descending Los Angeles Center
11:56PM 34.9489 -119.3022 154° Southeast 470 541 31,200 -2,940 Descending Los Angeles Center
11:58PM 34.9832 -119.4137 146° Southeast  Level FlightAware Approximate
11:58PM 34.8264 -119.2308 154° Southeast 483 556 28,000  Level Los Angeles Center
11:59PM 34.8936 -119.3391 146° Southeast  Level FlightAware Approximate
11:59PM 34.6869 -119.1508 155° Southeast 465 535 24,700  Level Los Angeles Center
12:00AM 34.5761 -119.0661 148° Southeast 450 518 22,000 -2,640 Descending Los Angeles Center
12:01AM 34.4797 -118.9856 145° Southeast 421 484 19,400 -2,820 Descending Los Angeles Center
12:02AM 34.3686 -118.8925 145° Southeast 399 459 16,300 -2,700 Descending Los Angeles Center
12:03AM 34.2667 -118.8481 160° South 392 451 13,900 -1,740 Descending Los Angeles Center
12:04AM 34.1753 -118.7861 151° Southeast 383 441 12,500 -1,560 Descending Los Angeles Center
12:05AM 34.0697 -118.6975 145° Southeast 369 425 10,400 -1,620 Descending Los Angeles Center
12:06AM 34.0364 -118.6006 113° Southeast 322 371 9,300 -1,440 Descending Los Angeles Center
12:07AM 34.0158 -118.4894 103° East 316 364 7,500 -1,380 Descending Los Angeles Center
12:08AM 34.0172 -118.4053 89° East 296 341 6,500 -840 Descending Los Angeles Center
12:09AM 34.0228 -118.3289 85° East 289 333 5,800 -600 Descending Los Angeles Center
12:10AM 34.0303 -118.2450 84° East 260 299 5,300 -1,560 Descending Los Angeles Center
12:11AM 34.0408 -118.1322 84° East 244 281 2,700 -1,320 Descending Los Angeles Center
12:12AM 33.9925 -118.1047 155° Southeast 219 252 2,600 -60 Descending Los Angeles Center
12:13AM 33.9778 -118.1533 250° West 199 229 2,600  Level Los Angeles Center
12:14AM 33.9697 -118.2306 263° West 196 226 2,600 -360 Level Los Angeles Center
12:15AM 33.9636 -118.2950 263° West 196 226 1,900 -780 Descending Los Angeles Center
12:16AM 33.9583 -118.3489 263° West 177 204 1,000 -840 Descending Los Angeles Center
12:17AM 33.9536 -118.3933 263° West 149 171 300 -420 Descending Los Angeles Center
12:18AM 33.9497 -118.4369 264° West 146 168 200 -120 Descending Los Angeles Center
12:20AM 33.9425 -118.4081 90° East  Level Estimated